createdAt,value
2018-05-26T00:00:26.590Z,102167.44
2018-05-26T00:02:54.004Z,102165.56
2018-05-26T00:05:21.430Z,102163.02
2018-05-26T00:07:48.837Z,102164.52
2018-05-26T00:10:16.256Z,102158.30
2018-05-26T00:12:43.669Z,102157.82
2018-05-26T00:15:11.068Z,102155.89
2018-05-26T00:17:38.488Z,102159.44
2018-05-26T00:20:05.896Z,102160.73
2018-05-26T00:22:33.321Z,102157.47
2018-05-26T00:25:00.740Z,102155.03
2018-05-26T00:27:28.160Z,102158.10
2018-05-26T00:29:55.581Z,102161.56
2018-05-26T00:32:23.004Z,102163.45
2018-05-26T00:34:50.409Z,102162.00
2018-05-26T00:37:17.825Z,102161.87
2018-05-26T00:39:45.245Z,102165.67
2018-05-26T00:42:12.659Z,102169.31
2018-05-26T00:44:40.080Z,102171.55
2018-05-26T00:47:07.506Z,102170.59
2018-05-26T00:49:34.917Z,102175.56
2018-05-26T00:52:02.337Z,102163.95
2018-05-26T00:54:29.740Z,102166.19
2018-05-26T00:56:57.166Z,102164.85
2018-05-26T00:59:24.582Z,102169.86
2018-05-26T01:01:51.993Z,102167.57
2018-05-26T01:04:19.397Z,102163.25
2018-05-26T01:06:46.821Z,102158.17
2018-05-26T01:09:14.224Z,102156.23
2018-05-26T01:11:41.644Z,102150.97
2018-05-26T01:14:09.052Z,102153.34
2018-05-26T01:16:36.472Z,102159.67
2018-05-26T01:19:03.889Z,102156.41
2018-05-26T01:21:31.317Z,102152.09
2018-05-26T01:23:58.723Z,102158.16
2018-05-26T01:26:26.151Z,102158.25
2018-05-26T01:28:53.563Z,102156.38
2018-05-26T01:31:20.985Z,102167.05
2018-05-26T01:33:48.385Z,102161.48
2018-05-26T01:36:15.801Z,102162.09
2018-05-26T01:38:43.222Z,102164.08
2018-05-26T01:41:10.629Z,102164.00
2018-05-26T01:43:38.053Z,102154.75
2018-05-26T01:46:05.466Z,102155.34
2018-05-26T01:48:32.897Z,102158.25
2018-05-26T01:51:00.313Z,102158.34
2018-05-26T01:53:27.740Z,102160.48
2018-05-26T01:55:55.152Z,102165.32
2018-05-26T01:58:22.575Z,102168.45
2018-05-26T02:00:49.985Z,102165.32
2018-05-26T02:03:17.412Z,102166.82
2018-05-26T02:05:44.828Z,102168.29
2018-05-26T02:08:12.255Z,102167.23
2018-05-26T02:10:39.668Z,102163.44
2018-05-26T02:13:07.100Z,102154.78
2018-05-26T02:15:34.517Z,102155.42
2018-05-26T02:18:01.932Z,102155.36
2018-05-26T02:20:29.380Z,102154.04
2018-05-26T02:22:56.837Z,102158.22
2018-05-26T02:25:24.252Z,102157.92
2018-05-26T02:27:51.672Z,102156.83
2018-05-26T02:30:19.200Z,102168.16
2018-05-26T02:32:46.628Z,102164.13
2018-05-26T02:35:14.043Z,102165.71
2018-05-26T02:37:41.569Z,102169.89
2018-05-26T02:40:09.017Z,102172.90
2018-05-26T02:42:36.445Z,102161.77
2018-05-26T02:45:03.848Z,102169.70
2018-05-26T02:47:31.285Z,102166.02
2018-05-26T02:49:58.688Z,102164.21
2018-05-26T02:52:26.201Z,102162.18
2018-05-26T02:54:53.616Z,102161.95
2018-05-26T02:57:21.109Z,102162.52
2018-05-26T02:59:48.515Z,102169.22
2018-05-26T03:02:16.012Z,102166.55
2018-05-26T03:04:49.177Z,102164.48
2018-05-26T03:07:22.161Z,102157.86
2018-05-26T03:09:55.116Z,102159.30
2018-05-26T03:12:28.035Z,102158.05
2018-05-26T03:14:54.896Z,102155.61
2018-05-26T03:17:22.305Z,102164.86
2018-05-26T03:19:49.812Z,102158.58
2018-05-26T03:22:17.264Z,102160.28
2018-05-26T03:24:44.679Z,102155.38
2018-05-26T03:27:12.177Z,102161.29
2018-05-26T03:29:39.637Z,102151.70
2018-05-26T03:32:07.093Z,102157.75
2018-05-26T03:34:34.512Z,102162.00
2018-05-26T03:37:02.009Z,102166.78
2018-05-26T03:39:29.427Z,102165.95
2018-05-26T03:41:56.844Z,102170.28
2018-05-26T03:44:24.256Z,102180.61
2018-05-26T03:46:51.720Z,102174.72
2018-05-26T03:49:19.145Z,102173.14
2018-05-26T03:51:46.556Z,102179.53
2018-05-26T03:54:14.006Z,102178.55
2018-05-26T03:56:53.352Z,102181.59
2018-05-26T04:02:16.384Z,102185.51
2018-05-26T04:04:43.820Z,102194.12
2018-05-26T04:07:11.257Z,102191.23
2018-05-26T04:09:38.684Z,102196.57
2018-05-26T04:12:06.094Z,102200.75
2018-05-26T04:14:33.525Z,102203.91
2018-05-26T04:17:00.928Z,102207.06
2018-05-26T04:19:28.360Z,102199.84
2018-05-26T04:21:55.767Z,102196.27
2018-05-26T04:24:23.184Z,102197.40
2018-05-26T04:26:50.639Z,102199.69
2018-05-26T04:29:18.066Z,102194.05
2018-05-26T04:31:45.472Z,102194.27
2018-05-26T04:34:12.900Z,102197.20
2018-05-26T04:36:40.304Z,102198.18
2018-05-26T04:39:07.720Z,102199.91
2018-05-26T04:41:35.136Z,102204.16
2018-05-26T04:44:02.571Z,102203.67
2018-05-26T04:46:30.044Z,102208.08
2018-05-26T04:48:57.529Z,102206.94
2018-05-26T04:51:24.949Z,102204.45
2018-05-26T04:53:52.372Z,102207.00
2018-05-26T04:56:19.782Z,102209.77
2018-05-26T04:58:47.208Z,102204.92
2018-05-26T05:01:14.617Z,102202.18
2018-05-26T05:03:42.058Z,102207.06
2018-05-26T05:06:09.467Z,102215.24
2018-05-26T05:08:36.884Z,102213.00
2018-05-26T05:11:04.293Z,102213.60
2018-05-26T05:13:31.708Z,102214.88
2018-05-26T05:15:59.143Z,102213.52
2018-05-26T05:18:26.588Z,102223.23
2018-05-26T05:20:54.016Z,102214.06
2018-05-26T05:23:21.424Z,102212.55
2018-05-26T05:25:48.855Z,102215.81
2018-05-26T05:28:16.279Z,102217.60
2018-05-26T05:30:43.691Z,102220.52
2018-05-26T05:33:11.111Z,102225.58
2018-05-26T05:35:38.580Z,102217.88
2018-05-26T05:38:06.027Z,102221.02
2018-05-26T05:40:33.453Z,102219.81
2018-05-26T05:43:00.868Z,102221.08
2018-05-26T05:45:28.287Z,102225.36
2018-05-26T05:47:55.689Z,102226.73
2018-05-26T05:50:23.113Z,102222.91
2018-05-26T05:52:50.531Z,102227.75
2018-05-26T05:55:17.952Z,102228.24
2018-05-26T05:57:45.375Z,102223.73
2018-05-26T06:00:12.803Z,102232.75
2018-05-26T06:02:40.204Z,102227.48
2018-05-26T06:05:07.628Z,102225.42
2018-05-26T06:07:35.031Z,102225.72
2018-05-26T06:10:02.444Z,102230.23
2018-05-26T06:12:29.863Z,102229.02
2018-05-26T06:14:57.316Z,102229.91
2018-05-26T06:17:24.691Z,102229.45
2018-05-26T06:19:52.145Z,102238.36
2018-05-26T06:22:19.561Z,102237.21
2018-05-26T06:24:46.973Z,102237.27
2018-05-26T06:27:14.385Z,102237.83
2018-05-26T06:29:41.800Z,102244.44
2018-05-26T06:32:09.208Z,102240.97
2018-05-26T06:34:36.629Z,102235.36
2018-05-26T06:37:04.041Z,102232.49
2018-05-26T06:39:31.464Z,102231.79
2018-05-26T06:41:58.868Z,102235.61
2018-05-26T06:44:26.287Z,102246.20
2018-05-26T06:46:53.697Z,102233.73
2018-05-26T06:49:21.115Z,102233.35
2018-05-26T06:51:48.537Z,102236.87
2018-05-26T06:54:15.964Z,102240.61
2018-05-26T06:56:43.379Z,102232.38
2018-05-26T06:59:10.781Z,102233.28
2018-05-26T07:01:38.197Z,102232.95
2018-05-26T07:04:05.596Z,102236.00
2018-05-26T07:06:33.065Z,102240.05
2018-05-26T07:09:00.468Z,102232.22
2018-05-26T07:11:27.889Z,102228.63
2018-05-26T07:13:55.308Z,102229.65
2018-05-26T07:16:22.724Z,102222.53
2018-05-26T07:18:50.140Z,102223.20
2018-05-26T07:21:17.568Z,102223.79
2018-05-26T07:23:44.964Z,102226.34
2018-05-26T07:26:17.447Z,102225.54
2018-05-26T07:31:47.577Z,102231.86
2018-05-26T07:34:33.361Z,102229.14
2018-05-26T07:37:04.575Z,102232.83
2018-05-26T07:39:33.134Z,102224.05
2018-05-26T07:42:03.804Z,102234.85
2018-05-26T07:44:37.716Z,102233.20
2018-05-26T07:47:08.470Z,102232.29
2018-05-26T07:49:39.087Z,102232.69
2018-05-26T07:52:14.851Z,102225.44
2018-05-26T07:54:46.196Z,102226.93
2018-05-26T07:57:19.079Z,102224.20
2018-05-26T07:59:46.643Z,102221.28
2018-05-26T08:02:14.067Z,102218.59
2018-05-26T08:04:41.479Z,102220.09
2018-05-26T08:07:08.908Z,102220.39
2018-05-26T08:09:36.320Z,102216.77
2018-05-26T08:12:03.741Z,102214.13
2018-05-26T08:14:31.161Z,102219.34
2018-05-26T08:16:58.582Z,102221.34
2018-05-26T08:19:25.999Z,102225.17
2018-05-26T08:21:53.532Z,102225.12
2018-05-26T08:24:20.961Z,102221.20
2018-05-26T08:26:48.442Z,102229.28
2018-05-26T08:29:15.908Z,102224.23
2018-05-26T08:31:44.706Z,102220.78
2018-05-26T08:34:12.112Z,102222.19
2018-05-26T08:36:39.538Z,102224.08
2018-05-26T08:39:06.957Z,102222.98
2018-05-26T08:41:34.388Z,102224.05
2018-05-26T08:44:01.798Z,102223.74
2018-05-26T08:46:29.225Z,102220.05
2018-05-26T08:48:56.656Z,102220.81
2018-05-26T08:51:24.078Z,102219.27
2018-05-26T08:53:51.502Z,102224.01
2018-05-26T08:56:18.921Z,102228.08
2018-05-26T08:58:46.397Z,102226.83
2018-05-26T09:01:13.832Z,102223.94
2018-05-26T09:03:41.308Z,102228.16
2018-05-26T09:06:08.745Z,102224.90
2018-05-26T09:08:36.168Z,102231.27
2018-05-26T09:11:03.708Z,102224.77
2018-05-26T09:13:31.129Z,102224.36
2018-05-26T09:15:58.567Z,102219.22
2018-05-26T09:18:25.984Z,102223.14
2018-05-26T09:20:53.409Z,102218.12
2018-05-26T09:23:20.846Z,102220.94
2018-05-26T09:25:48.269Z,102222.45
2018-05-26T09:28:15.683Z,102223.77
2018-05-26T09:30:43.110Z,102219.28
2018-05-26T09:33:10.676Z,102224.84
2018-05-26T09:35:38.122Z,102220.66
2018-05-26T09:38:05.550Z,102219.26
2018-05-26T09:40:32.959Z,102215.55
2018-05-26T09:43:00.496Z,102216.13
2018-05-26T09:45:27.917Z,102219.34
2018-05-26T09:47:55.332Z,102218.97
2018-05-26T09:50:22.752Z,102218.44
2018-05-26T09:52:50.181Z,102218.89
2018-05-26T09:55:17.605Z,102220.53
2018-05-26T09:57:45.073Z,102220.42
2018-05-26T10:00:12.484Z,102213.98
2018-05-26T10:02:39.914Z,102221.31
2018-05-26T10:05:07.385Z,102220.81
2018-05-26T10:07:34.846Z,102218.06
2018-05-26T10:10:02.267Z,102206.86
2018-05-26T10:12:29.701Z,102209.91
2018-05-26T10:14:57.223Z,102208.15
2018-05-26T10:17:24.681Z,102203.06
2018-05-26T10:19:52.110Z,102202.79
2018-05-26T10:22:19.574Z,102210.08
2018-05-26T10:24:46.998Z,102203.08
2018-05-26T10:27:14.488Z,102204.22
2018-05-26T10:29:41.907Z,102207.11
2018-05-26T10:32:09.381Z,102201.88
2018-05-26T10:34:36.821Z,102198.98
2018-05-26T10:37:04.248Z,102205.55
2018-05-26T10:39:31.672Z,102208.52
2018-05-26T10:41:59.101Z,102202.52
2018-05-26T10:44:26.546Z,102202.53
2018-05-26T10:46:54.000Z,102211.86
2018-05-26T10:49:21.419Z,102203.45
2018-05-26T10:51:48.945Z,102201.06
2018-05-26T10:54:16.401Z,102197.70
2018-05-26T10:56:43.848Z,102200.65
2018-05-26T10:59:11.281Z,102198.16
2018-05-26T11:01:38.760Z,102199.97
2018-05-26T11:04:06.216Z,102198.67
2018-05-26T11:06:45.559Z,102201.68
2018-05-26T11:09:12.983Z,102192.93
2018-05-26T11:11:40.413Z,102204.05
2018-05-26T11:14:07.832Z,102199.02
2018-05-26T11:16:35.282Z,102194.88
2018-05-26T11:19:02.747Z,102194.04
2018-05-26T11:21:30.141Z,102192.86
2018-05-26T11:23:57.650Z,102190.89
2018-05-26T11:26:24.976Z,102190.81
2018-05-26T11:28:52.459Z,102186.71
2018-05-26T11:31:19.859Z,102202.64
2018-05-26T11:33:47.290Z,102202.05
2018-05-26T11:36:14.709Z,102201.70
2018-05-26T11:38:42.156Z,102204.61
2018-05-26T11:41:09.581Z,102198.80
2018-05-26T11:43:37.028Z,102201.05
2018-05-26T11:46:04.441Z,102206.30
2018-05-26T11:48:31.888Z,102205.75
2018-05-26T11:50:59.300Z,102206.11
2018-05-26T11:53:26.763Z,102200.41
2018-05-26T11:55:54.170Z,102195.41
2018-05-26T11:58:21.607Z,102198.67
2018-05-26T12:00:49.032Z,102200.88
2018-05-26T12:03:16.470Z,102194.04
2018-05-26T12:05:43.884Z,102197.31
2018-05-26T12:08:11.324Z,102186.98
2018-05-26T12:10:38.813Z,102191.03
2018-05-26T12:13:06.249Z,102191.15
2018-05-26T12:15:33.660Z,102184.97
2018-05-26T12:18:01.149Z,102181.41
2018-05-26T12:20:28.564Z,102184.07
2018-05-26T12:22:55.987Z,102180.60
2018-05-26T12:25:23.437Z,102182.17
2018-05-26T12:27:50.869Z,102180.23
2018-05-26T12:30:18.328Z,102176.17
2018-05-26T12:32:45.774Z,102177.92
2018-05-26T12:35:13.188Z,102179.63
2018-05-26T12:37:40.691Z,102172.64
2018-05-26T12:40:08.107Z,102167.40
2018-05-26T12:42:35.541Z,102183.61
2018-05-26T12:45:02.964Z,102180.18
2018-05-26T12:47:30.384Z,102172.55
2018-05-26T12:49:57.807Z,102173.70
2018-05-26T12:52:25.233Z,102176.41
2018-05-26T12:54:52.647Z,102165.66
2018-05-26T12:57:20.145Z,102161.71
2018-05-26T12:59:47.592Z,102167.91
2018-05-26T13:02:15.016Z,102159.20
2018-05-26T13:04:42.502Z,102162.84
2018-05-26T13:07:09.928Z,102170.84
2018-05-26T13:09:37.552Z,102162.64
2018-05-26T13:12:04.980Z,102167.08
2018-05-26T13:14:32.408Z,102165.84
2018-05-26T13:17:00.634Z,102166.27
2018-05-26T13:19:28.062Z,102168.73
2018-05-26T13:21:55.649Z,102169.64
2018-05-26T13:24:23.064Z,102165.68
2018-05-26T13:26:50.480Z,102164.94
2018-05-26T13:29:17.908Z,102162.92
2018-05-26T13:31:45.578Z,102162.59
2018-05-26T13:34:13.000Z,102159.20
2018-05-26T13:36:40.417Z,102156.66
2018-05-26T13:39:07.850Z,102156.58
2018-05-26T13:41:35.280Z,102154.11
2018-05-26T13:44:02.708Z,102151.74
2018-05-26T13:46:30.128Z,102154.41
2018-05-26T13:48:57.612Z,102147.63
2018-05-26T13:51:25.047Z,102148.95
2018-05-26T13:53:52.469Z,102148.87
2018-05-26T13:56:19.935Z,102153.97
2018-05-26T13:58:47.449Z,102155.83
2018-05-26T14:01:15.064Z,102156.16
2018-05-26T14:03:42.481Z,102151.13
2018-05-26T14:06:09.895Z,102151.68
2018-05-26T14:08:37.340Z,102153.77
2018-05-26T14:11:04.768Z,102151.61
2018-05-26T14:13:32.276Z,102151.52
2018-05-26T14:15:59.729Z,102150.18
2018-05-26T14:18:27.136Z,102155.65
2018-05-26T14:20:54.553Z,102150.52
2018-05-26T14:23:21.987Z,102161.81
2018-05-26T14:25:49.464Z,102160.95
2018-05-26T14:28:16.908Z,102161.77
2018-05-26T14:30:44.389Z,102160.41
2018-05-26T14:33:11.819Z,102161.95
2018-05-26T14:35:39.244Z,102170.34
2018-05-26T14:38:06.746Z,102182.25
2018-05-26T14:40:34.197Z,102174.42
2018-05-26T14:43:01.617Z,102179.32
2018-05-26T14:45:29.096Z,102179.32
2018-05-26T14:47:56.504Z,102188.88
2018-05-26T14:50:23.929Z,102184.13
2018-05-26T14:52:51.370Z,102182.44
2018-05-26T14:55:18.818Z,102175.38
2018-05-26T14:57:46.236Z,102188.05
2018-05-26T15:00:13.672Z,102168.47
2018-05-26T15:02:41.089Z,102177.12
2018-05-26T15:05:08.513Z,102179.66
2018-05-26T15:07:35.930Z,102176.53
2018-05-26T15:10:03.356Z,102174.52
2018-05-26T15:12:30.801Z,102175.80
2018-05-26T15:14:58.228Z,102171.55
2018-05-26T15:17:25.644Z,102161.09
2018-05-26T15:19:53.073Z,102164.00
2018-05-26T15:22:20.533Z,102162.26
2018-05-26T15:24:47.982Z,102163.81
2018-05-26T15:27:15.400Z,102167.44
2018-05-26T15:29:42.823Z,102169.97
2018-05-26T15:32:10.344Z,102165.81
2018-05-26T15:34:37.774Z,102170.34
2018-05-26T15:37:05.184Z,102169.77
2018-05-26T15:39:32.616Z,102171.80
2018-05-26T15:42:00.039Z,102165.75
2018-05-26T15:44:27.468Z,102169.23
2018-05-26T15:46:54.977Z,102157.59
2018-05-26T15:49:22.412Z,102164.18
2018-05-26T15:51:49.844Z,102159.80
2018-05-26T15:54:17.280Z,102163.21
2018-05-26T15:56:44.814Z,102162.13
2018-05-26T15:59:12.229Z,102163.90
2018-05-26T16:01:39.653Z,102166.95
2018-05-26T16:04:07.068Z,102162.63
2018-05-26T16:06:34.524Z,102160.12
2018-05-26T16:09:01.973Z,102160.49
2018-05-26T16:11:29.430Z,102161.07
2018-05-26T16:13:56.839Z,102162.33
2018-05-26T16:16:24.260Z,102162.41
2018-05-26T16:18:51.704Z,102169.02
2018-05-26T16:21:19.152Z,102169.72
2018-05-26T16:23:46.577Z,102168.80
2018-05-26T16:26:14.000Z,102174.03
2018-05-26T16:28:41.468Z,102173.56
2018-05-26T16:31:08.897Z,102181.91
2018-05-26T16:33:36.311Z,102168.94
2018-05-26T16:36:03.785Z,102167.00
2018-05-26T16:38:31.200Z,102174.69
2018-05-26T16:40:58.621Z,102175.45
2018-05-26T16:43:26.043Z,102180.00
2018-05-26T16:45:53.468Z,102179.61
2018-05-26T16:48:20.879Z,102185.29
2018-05-26T16:50:48.332Z,102177.20
2018-05-26T16:53:15.753Z,102177.23
2018-05-26T16:55:43.177Z,102180.36
2018-05-26T16:58:10.596Z,102182.72
2018-05-26T17:00:38.024Z,102182.99
2018-05-26T17:03:05.431Z,102183.06
2018-05-26T17:05:32.856Z,102183.05
2018-05-26T17:08:00.272Z,102178.22
2018-05-26T17:10:27.687Z,102178.84
2018-05-26T17:12:55.121Z,102180.87
2018-05-26T17:15:22.554Z,102177.59
2018-05-26T17:17:49.975Z,102175.16
2018-05-26T17:20:17.404Z,102178.61
2018-05-26T17:22:44.833Z,102176.56
2018-05-26T17:25:12.253Z,102172.53
2018-05-26T17:27:39.689Z,102175.39
2018-05-26T17:30:07.120Z,102166.70
2018-05-26T17:32:34.543Z,102165.42
2018-05-26T17:35:01.972Z,102172.21
2018-05-26T17:37:29.405Z,102172.16
2018-05-26T17:39:56.833Z,102176.24
2018-05-26T17:42:24.264Z,102175.36
2018-05-26T17:44:51.692Z,102170.13
2018-05-26T17:47:19.112Z,102175.87
2018-05-26T17:49:46.535Z,102170.34
2018-05-26T17:52:13.959Z,102171.58
2018-05-26T17:54:41.409Z,102167.23
2018-05-26T17:57:08.836Z,102168.31
2018-05-26T17:59:36.256Z,102169.84
2018-05-26T18:02:03.692Z,102172.73
2018-05-26T18:04:31.108Z,102176.88
2018-05-26T18:06:58.533Z,102180.92
2018-05-26T18:09:25.948Z,102175.06
2018-05-26T18:11:53.385Z,102175.26
2018-05-26T18:14:20.800Z,102179.52
2018-05-26T18:16:48.221Z,102173.63
2018-05-26T18:19:15.640Z,102168.78
2018-05-26T18:21:43.060Z,102168.55
2018-05-26T18:24:10.481Z,102170.35
2018-05-26T18:26:37.901Z,102169.91
2018-05-26T18:29:05.344Z,102177.14
2018-05-26T18:31:32.778Z,102177.55
2018-05-26T18:34:00.190Z,102182.63
2018-05-26T18:36:27.608Z,102178.44
2018-05-26T18:38:55.037Z,102180.93
2018-05-26T18:41:22.473Z,102180.11
2018-05-26T18:43:49.895Z,102182.13
2018-05-26T18:46:17.332Z,102182.13
2018-05-26T18:48:44.817Z,102190.40
2018-05-26T18:51:12.200Z,102187.95
2018-05-26T18:53:39.628Z,102196.25
2018-05-26T18:56:07.064Z,102196.88
2018-05-26T18:58:34.482Z,102193.61
2018-05-26T19:01:01.915Z,102198.90
2018-05-26T19:03:29.363Z,102204.75
2018-05-26T19:05:56.849Z,102201.15
2018-05-26T19:08:24.260Z,102204.17
2018-05-26T19:10:51.675Z,102210.87
2018-05-26T19:13:19.109Z,102222.20
2018-05-26T19:15:46.524Z,102217.17
2018-05-26T19:18:13.947Z,102215.55
2018-05-26T19:20:41.400Z,102215.95
2018-05-26T19:23:08.825Z,102213.30
2018-05-26T19:25:36.241Z,102205.22
2018-05-26T19:28:03.659Z,102202.55
2018-05-26T19:30:31.089Z,102199.73
2018-05-26T19:32:58.511Z,102201.59
2018-05-26T19:35:25.924Z,102198.94
2018-05-26T19:37:53.344Z,102206.83
2018-05-26T19:40:20.778Z,102210.47
2018-05-26T19:42:48.196Z,102210.47
2018-05-26T19:45:15.615Z,102215.54
2018-05-26T19:47:43.045Z,102226.06
2018-05-26T19:50:10.522Z,102231.73
2018-05-26T19:52:37.879Z,102220.40
2018-05-26T19:55:05.300Z,102225.27
2018-05-26T19:57:32.725Z,102233.37
2018-05-26T20:00:00.157Z,102232.53
2018-05-26T20:02:27.576Z,102236.59
2018-05-26T20:04:54.988Z,102230.30
2018-05-26T20:07:22.421Z,102236.98
2018-05-26T20:09:49.844Z,102247.28
2018-05-26T20:12:17.264Z,102248.89
2018-05-26T20:14:44.697Z,102240.80
2018-05-26T20:17:12.131Z,102244.86
2018-05-26T20:19:39.553Z,102245.86
2018-05-26T20:22:06.982Z,102249.86
2018-05-26T20:24:34.399Z,102247.03
2018-05-26T20:27:01.816Z,102247.81
2018-05-26T20:29:29.228Z,102251.88
2018-05-26T20:31:56.657Z,102249.64
2018-05-26T20:34:24.076Z,102245.98
2018-05-26T20:36:51.505Z,102245.35
2018-05-26T20:39:18.924Z,102247.54
2018-05-26T20:41:46.369Z,102245.48
2018-05-26T20:44:13.782Z,102250.48
2018-05-26T20:46:41.199Z,102236.00
2018-05-26T20:49:08.620Z,102235.95
2018-05-26T20:51:36.032Z,102248.73
2018-05-26T20:54:03.452Z,102256.64
2018-05-26T20:56:30.868Z,102255.97
2018-05-26T20:58:58.292Z,102254.16
2018-05-26T21:01:25.717Z,102252.56
2018-05-26T21:03:53.139Z,102249.56
2018-05-26T21:06:20.552Z,102249.77
2018-05-26T21:08:47.994Z,102239.67
2018-05-26T21:11:15.399Z,102240.66
2018-05-26T21:13:42.829Z,102235.53
2018-05-26T21:16:10.249Z,102240.27
2018-05-26T21:18:37.675Z,102239.16
2018-05-26T21:21:05.099Z,102242.47
2018-05-26T21:23:32.525Z,102237.82
2018-05-26T21:25:59.950Z,102242.37
2018-05-26T21:28:27.387Z,102243.05
2018-05-26T21:30:54.795Z,102250.77
2018-05-26T21:33:22.221Z,102250.34
2018-05-26T21:35:49.632Z,102251.69
2018-05-26T21:38:17.058Z,102251.41
2018-05-26T21:40:44.465Z,102251.80
2018-05-26T21:43:11.882Z,102254.13
2018-05-26T21:45:39.308Z,102252.25
2018-05-26T21:48:06.732Z,102251.46
2018-05-26T21:50:34.146Z,102250.64
2018-05-26T21:53:01.577Z,102252.70
2018-05-26T21:55:28.997Z,102254.20
2018-05-26T21:57:56.441Z,102256.83
2018-05-26T22:00:23.810Z,102252.25
2018-05-26T22:02:51.224Z,102255.01
2018-05-26T22:05:18.647Z,102253.36
2018-05-26T22:07:46.058Z,102245.60
2018-05-26T22:10:13.464Z,102247.64
2018-05-26T22:12:40.898Z,102252.23
2018-05-26T22:15:08.309Z,102245.68
2018-05-26T22:17:35.725Z,102242.25
2018-05-26T22:20:03.143Z,102242.23
2018-05-26T22:22:30.552Z,102239.87
2018-05-26T22:24:57.972Z,102239.61
2018-05-26T22:27:25.392Z,102241.88
2018-05-26T22:29:52.819Z,102232.19
2018-05-26T22:32:20.230Z,102238.11
2018-05-26T22:34:47.645Z,102230.84
2018-05-26T22:37:15.052Z,102235.09
2018-05-26T22:39:42.469Z,102238.52
2018-05-26T22:42:09.880Z,102240.41
2018-05-26T22:44:37.304Z,102241.49
2018-05-26T22:47:04.720Z,102244.70
2018-05-26T22:49:32.141Z,102242.23
2018-05-26T22:51:59.553Z,102240.09
2018-05-26T22:54:26.972Z,102242.27
2018-05-26T22:56:54.391Z,102241.86
2018-05-26T22:59:21.806Z,102242.36
2018-05-26T23:01:49.216Z,102239.14
2018-05-26T23:04:16.628Z,102240.95
2018-05-26T23:06:44.031Z,102234.77
2018-05-26T23:09:11.452Z,102239.73
2018-05-26T23:11:38.876Z,102232.33
2018-05-26T23:14:06.297Z,102233.66
2018-05-26T23:16:33.712Z,102237.98
2018-05-26T23:19:01.128Z,102235.42
2018-05-26T23:21:28.537Z,102233.55
2018-05-26T23:23:55.962Z,102234.42
2018-05-26T23:26:23.378Z,102228.41
2018-05-26T23:28:50.805Z,102221.50
2018-05-26T23:31:18.213Z,102228.70
2018-05-26T23:33:45.628Z,102227.38
2018-05-26T23:36:13.040Z,102223.52
2018-05-26T23:38:40.457Z,102229.22
2018-05-26T23:41:07.877Z,102226.48
2018-05-26T23:43:35.289Z,102228.63
2018-05-26T23:46:02.697Z,102229.66
2018-05-26T23:48:30.170Z,102233.14
2018-05-26T23:50:57.524Z,102233.89
2018-05-26T23:53:24.983Z,102236.60
2018-05-26T23:55:52.389Z,102238.08
2018-05-26T23:58:19.795Z,102240.95
